Time;durP1;ratioP1;P1;durP2;ratioP2;P2;SDS_P1;SDS_P2;PMS_P1;PMS_P2;Temp;Humidity;BMP_temperature;BMP_pressure;BME280_temperature;BME280_humidity;BME280_pressure;Samples;Min_cycle;Max_cycle;Signal;HPM_P1;HPM_P2
2022/05/22 00:01:11;;;;;;;22.40;3.60;;;;;;;;;;5039389;28;20021;-75
2022/05/22 00:03:37;;;;;;;23.15;3.30;;;;;;;;;;5045774;28;20025;-75
2022/05/22 00:06:03;;;;;;;21.33;3.60;;;;;;;;;;5040204;28;20025;-75
2022/05/22 00:08:29;;;;;;;21.08;3.42;;;;;;;;;;5034065;28;20025;-76
2022/05/22 00:10:55;;;;;;;32.63;4.80;;;;;;;;;;5034520;28;20029;-76
2022/05/22 00:13:21;;;;;;;17.45;3.53;;;;;;;;;;5034684;28;20108;-76
2022/05/22 00:18:31;;;;;;;28.27;3.97;;;;;;;;;;5042075;28;20039;-76
2022/05/22 00:20:57;;;;;;;28.75;4.00;;;;;;;;;;5039453;28;20104;-75
2022/05/22 00:23:24;;;;;;;26.42;3.72;;;;;;;;;;5034231;28;20461;-76
2022/05/22 00:25:50;;;;;;;29.00;4.03;;;;;;;;;;5033816;28;20021;-76
2022/05/22 00:28:16;;;;;;;24.15;3.65;;;;;;;;;;5033798;28;20105;-75
2022/05/22 00:30:42;;;;;;;25.20;5.00;;;;;;;;;;5034135;28;20455;-76
2022/05/22 00:33:08;;;;;;;20.00;3.70;;;;;;;;;;5033757;28;20490;-75
2022/05/22 00:35:34;;;;;;;23.10;3.80;;;;;;;;;;5032177;28;20017;-75
2022/05/22 00:37:59;;;;;;;20.23;3.42;;;;;;;;;;5035951;28;20506;-75
2022/05/22 00:40:25;;;;;;;27.02;4.05;;;;;;;;;;5034975;28;20327;-76
2022/05/22 00:42:52;;;;;;;22.83;3.40;;;;;;;;;;5034491;28;20029;-76
2022/05/22 00:45:19;;;;;;;18.23;3.70;;;;;;;;;;5033760;28;20498;-75
2022/05/22 00:47:45;;;;;;;24.83;3.95;;;;;;;;;;5034051;28;20025;-76
2022/05/22 00:50:12;;;;;;;24.40;3.65;;;;;;;;;;5034332;28;20037;-76
2022/05/22 00:52:40;;;;;;;21.30;3.83;;;;;;;;;;5033600;28;20037;-76
2022/05/22 00:55:09;;;;;;;22.58;3.97;;;;;;;;;;5032158;28;20025;-75
2022/05/22 00:57:37;;;;;;;22.27;3.75;;;;;;;;;;5033406;28;20072;-75
2022/05/22 01:00:08;;;;;;;22.75;3.55;;;;;;;;;;5033502;28;20022;-75
2022/05/22 01:05:19;;;;;;;;;;;;;;;;;;5033964;28;20128;-75
2022/05/22 01:07:46;;;;;;;21.55;3.67;;;;;;;;;;5033427;28;20378;-76
2022/05/22 01:10:12;;;;;;;36.05;5.50;;;;;;;;;;5033761;28;20053;-75
2022/05/22 01:12:39;;;;;;;22.20;4.70;;;;;;;;;;5035185;28;20096;-74
2022/05/22 01:15:07;;;;;;;22.42;3.95;;;;;;;;;;5035536;28;20395;-76
2022/05/22 01:17:45;;;;;;;27.52;4.80;;;;;;;;;;5034822;28;20049;-76
2022/05/22 01:20:11;;;;;;;23.55;4.05;;;;;;;;;;5032159;28;20026;-76
2022/05/22 01:22:37;;;;;;;28.30;4.57;;;;;;;;;;5033215;28;20025;-76
2022/05/22 01:25:04;;;;;;;29.30;4.40;;;;;;;;;;5032816;28;20423;-76
2022/05/22 01:27:30;;;;;;;25.73;4.50;;;;;;;;;;5032696;28;20096;-76
2022/05/22 01:30:16;;;;;;;16.55;4.25;;;;;;;;;;5033609;28;20482;-74
2022/05/22 01:32:44;;;;;;;22.25;4.85;;;;;;;;;;5033259;28;20022;-74
2022/05/22 01:35:12;;;;;;;21.17;4.20;;;;;;;;;;5040308;28;20026;-75
2022/05/22 01:37:38;;;;;;;23.17;4.30;;;;;;;;;;5041775;28;20025;-77
2022/05/22 01:40:04;;;;;;;31.83;5.07;;;;;;;;;;5036026;28;20041;-75
2022/05/22 01:42:30;;;;;;;29.27;5.38;;;;;;;;;;5031130;28;20029;-74
2022/05/22 01:44:56;;;;;;;31.45;5.00;;;;;;;;;;5032402;28;20033;-75
2022/05/22 01:47:22;;;;;;;28.25;5.03;;;;;;;;;;5032162;28;20025;-73
2022/05/22 01:49:48;;;;;;;24.35;4.50;;;;;;;;;;5030906;28;20022;-74
2022/05/22 01:52:14;;;;;;;24.90;4.85;;;;;;;;;;5032244;28;20492;-73
2022/05/22 01:54:40;;;;;;;33.38;5.80;;;;;;;;;;5032514;28;20025;-75
2022/05/22 01:57:06;;;;;;;23.65;5.30;;;;;;;;;;5032349;28;20026;-74
2022/05/22 01:59:32;;;;;;;25.35;5.13;;;;;;;;;;5032334;28;20029;-74
2022/05/22 02:01:58;;;;;;;24.90;5.18;;;;;;;;;;5032387;28;20021;-74
2022/05/22 02:04:24;;;;;;;25.08;5.25;;;;;;;;;;5032465;28;20478;-76
2022/05/22 02:09:34;;;;;;;30.40;5.50;;;;;;;;;;5032106;28;20087;-75
2022/05/22 02:12:00;;;;;;;25.10;4.57;;;;;;;;;;5032114;28;20025;-76
2022/05/22 02:14:26;;;;;;;26.92;6.13;;;;;;;;;;5032550;28;20108;-76
2022/05/22 02:16:52;;;;;;;32.65;5.25;;;;;;;;;;5032609;28;20021;-73
2022/05/22 02:19:18;;;;;;;25.40;4.63;;;;;;;;;;5032886;28;20104;-75
2022/05/22 02:21:45;;;;;;;22.77;5.32;;;;;;;;;;5032087;28;20041;-75
2022/05/22 02:24:11;;;;;;;27.42;5.60;;;;;;;;;;5032357;28;20032;-76
2022/05/22 02:26:37;;;;;;;20.42;5.10;;;;;;;;;;5031794;28;20351;-74
2022/05/22 02:29:03;;;;;;;25.55;4.30;;;;;;;;;;5031821;28;20033;-74
2022/05/22 02:31:29;;;;;;;22.05;4.45;;;;;;;;;;5033916;28;20029;-75
2022/05/22 02:33:55;;;;;;;28.45;4.90;;;;;;;;;;5036262;28;20024;-75
2022/05/22 02:36:21;;;;;;;21.35;4.75;;;;;;;;;;5036643;28;20022;-74
2022/05/22 02:38:47;;;;;;;16.92;4.55;;;;;;;;;;5036589;28;20100;-74
2022/05/22 02:41:17;;;;;;;21.45;4.40;;;;;;;;;;5037157;28;20045;-75
2022/05/22 02:43:43;;;;;;;17.30;3.78;;;;;;;;;;5045939;28;20027;-74
2022/05/22 02:46:10;;;;;;;35.25;4.93;;;;;;;;;;5048306;28;20025;-76
2022/05/22 02:48:36;;;;;;;26.65;4.68;;;;;;;;;;5055092;28;20025;-76
2022/05/22 02:51:02;;;;;;;23.33;4.15;;;;;;;;;;5050148;28;20029;-76
2022/05/22 02:53:28;;;;;;;23.45;4.80;;;;;;;;;;5047946;28;20024;-75
2022/05/22 02:55:54;;;;;;;21.42;4.45;;;;;;;;;;5044611;28;20025;-73
2022/05/22 02:58:20;;;;;;;30.90;4.70;;;;;;;;;;5034446;28;20036;-74
2022/05/22 03:00:46;;;;;;;25.13;4.03;;;;;;;;;;5035543;28;20030;-74
2022/05/22 03:03:12;;;;;;;25.42;4.50;;;;;;;;;;5035504;28;20026;-73
2022/05/22 03:08:23;;;;;;;23.73;4.93;;;;;;;;;;5035687;28;20036;-73
2022/05/22 03:10:48;;;;;;;20.55;4.13;;;;;;;;;;5035379;28;20030;-74
2022/05/22 03:13:15;;;;;;;29.55;5.35;;;;;;;;;;5035221;28;20036;-75
2022/05/22 03:15:41;;;;;;;26.10;5.28;;;;;;;;;;5033870;28;20067;-74
2022/05/22 03:18:07;;;;;;;23.17;4.50;;;;;;;;;;5035033;28;20029;-73
2022/05/22 03:20:33;;;;;;;30.00;5.43;;;;;;;;;;5035317;28;20025;-74
2022/05/22 03:22:59;;;;;;;23.67;4.68;;;;;;;;;;5035298;28;20375;-74
2022/05/22 03:25:25;;;;;;;28.20;5.43;;;;;;;;;;5034516;28;20021;-73
2022/05/22 03:27:51;;;;;;;20.98;4.65;;;;;;;;;;5034904;28;20036;-74
2022/05/22 03:30:18;;;;;;;17.67;4.22;;;;;;;;;;5034957;28;20033;-74
2022/05/22 03:32:44;;;;;;;27.55;4.75;;;;;;;;;;5033604;28;20052;-72
2022/05/22 03:35:10;;;;;;;19.27;4.57;;;;;;;;;;5034778;28;20022;-74
2022/05/22 03:37:36;;;;;;;25.33;4.47;;;;;;;;;;5034254;28;20026;-73
2022/05/22 03:40:02;;;;;;;19.27;4.43;;;;;;;;;;5035231;28;20070;-74
2022/05/22 03:42:28;;;;;;;29.40;5.97;;;;;;;;;;5034641;28;20503;-73
2022/05/22 03:44:54;;;;;;;28.45;4.90;;;;;;;;;;5037003;28;20036;-73
2022/05/22 03:47:20;;;;;;;16.88;4.28;;;;;;;;;;5035835;28;20036;-72
2022/05/22 03:49:46;;;;;;;24.60;4.32;;;;;;;;;;5036216;28;20386;-72
2022/05/22 03:52:12;;;;;;;26.25;4.45;;;;;;;;;;5035045;28;20026;-74
2022/05/22 03:54:38;;;;;;;21.60;4.15;;;;;;;;;;5033544;28;20382;-73
2022/05/22 03:57:04;;;;;;;17.38;3.90;;;;;;;;;;5034007;28;20386;-73
2022/05/22 03:59:31;;;;;;;23.27;4.15;;;;;;;;;;5034661;28;20818;-72
2022/05/22 04:01:57;;;;;;;22.67;4.00;;;;;;;;;;5034688;28;20025;-73
2022/05/22 04:04:23;;;;;;;17.02;4.25;;;;;;;;;;5034597;28;20048;-74
2022/05/22 04:06:49;;;;;;;24.02;4.13;;;;;;;;;;5034253;28;20533;-73
2022/05/22 04:09:15;;;;;;;25.75;5.43;;;;;;;;;;5034646;28;20025;-73
2022/05/22 04:11:41;;;;;;;22.90;4.50;;;;;;;;;;5034761;28;20026;-74
2022/05/22 04:14:07;;;;;;;19.40;4.50;;;;;;;;;;5034690;28;20033;-73
2022/05/22 04:16:33;;;;;;;25.73;4.53;;;;;;;;;;5034376;28;20109;-74
2022/05/22 04:18:59;;;;;;;21.50;5.03;;;;;;;;;;5034189;28;20093;-73
2022/05/22 04:21:25;;;;;;;22.90;4.65;;;;;;;;;;5034316;28;20104;-73
2022/05/22 04:26:36;;;;;;;27.45;4.72;;;;;;;;;;5034205;28;20044;-75
2022/05/22 04:29:02;;;;;;;30.35;5.28;;;;;;;;;;5034052;28;20041;-74
2022/05/22 04:31:28;;;;;;;20.85;4.07;;;;;;;;;;5035890;28;20033;-74
2022/05/22 04:33:54;;;;;;;20.17;4.03;;;;;;;;;;5034167;28;20071;-75
2022/05/22 04:36:20;;;;;;;14.85;3.90;;;;;;;;;;5033931;28;20025;-73
2022/05/22 04:38:46;;;;;;;34.50;5.65;;;;;;;;;;5034591;28;20022;-75
2022/05/22 04:41:11;;;;;;;19.92;4.13;;;;;;;;;;5034098;28;20033;-74
2022/05/22 04:43:37;;;;;;;26.95;4.50;;;;;;;;;;5034439;28;20084;-74
2022/05/22 04:46:06;;;;;;;25.83;4.65;;;;;;;;;;5036905;28;20028;-74
2022/05/22 04:48:32;;;;;;;25.55;4.53;;;;;;;;;;5040493;28;20017;-74
2022/05/22 04:50:58;;;;;;;21.17;4.18;;;;;;;;;;5036715;28;20026;-74
2022/05/22 04:53:25;;;;;;;27.95;4.65;;;;;;;;;;5033708;28;20089;-73
2022/05/22 04:55:51;;;;;;;24.95;4.55;;;;;;;;;;5033682;28;20017;-74
2022/05/22 04:58:17;;;;;;;23.58;4.22;;;;;;;;;;5033429;28;20108;-74
2022/05/22 05:00:44;;;;;;;24.85;5.35;;;;;;;;;;5033463;28;20033;-74
2022/05/22 05:03:10;;;;;;;22.15;4.82;;;;;;;;;;5033384;28;20037;-73
2022/05/22 05:05:36;;;;;;;32.53;5.78;;;;;;;;;;5033530;28;20543;-73
2022/05/22 05:08:02;;;;;;;25.90;4.97;;;;;;;;;;5033701;28;20146;-74
2022/05/22 05:10:27;;;;;;;22.17;4.72;;;;;;;;;;5032785;28;20367;-72
2022/05/22 05:12:54;;;;;;;19.00;3.92;;;;;;;;;;5032291;28;20034;-73
2022/05/22 05:15:21;;;;;;;16.10;3.97;;;;;;;;;;5031692;28;20025;-73
2022/05/22 05:17:48;;;;;;;20.42;4.20;;;;;;;;;;5030981;28;20022;-76
2022/05/22 05:20:16;;;;;;;23.02;4.63;;;;;;;;;;5030798;28;20025;-72
2022/05/22 05:22:43;;;;;;;19.90;3.88;;;;;;;;;;5030828;28;20029;-73
2022/05/22 05:25:10;;;;;;;27.20;4.70;;;;;;;;;;5032148;28;20059;-73
2022/05/22 05:27:35;;;;;;;27.80;4.25;;;;;;;;;;5031411;28;20025;-74
2022/05/22 05:30:01;;;;;;;18.17;4.07;;;;;;;;;;5032683;28;20049;-74
2022/05/22 05:32:27;;;;;;;20.13;3.65;;;;;;;;;;5033567;28;20037;-74
2022/05/22 05:34:57;;;;;;;24.05;4.75;;;;;;;;;;5043538;28;20056;-78
2022/05/22 05:37:23;;;;;;;24.33;4.00;;;;;;;;;;5046784;28;20143;-74
2022/05/22 05:39:49;;;;;;;18.80;4.20;;;;;;;;;;5049698;28;20026;-76
2022/05/22 05:42:15;;;;;;;21.73;3.60;;;;;;;;;;5050640;28;20035;-76
2022/05/22 05:44:41;;;;;;;22.20;4.47;;;;;;;;;;5051516;28;20069;-77
2022/05/22 05:47:11;;;;;;;22.05;4.32;;;;;;;;;;5054689;28;20026;-77
2022/05/22 05:49:37;;;;;;;23.35;4.38;;;;;;;;;;5043806;28;20025;-74
2022/05/22 05:52:04;;;;;;;25.17;4.75;;;;;;;;;;5032660;28;20036;-76
2022/05/22 05:54:30;;;;;;;24.23;4.20;;;;;;;;;;5034303;28;20033;-75
2022/05/22 05:56:56;;;;;;;29.83;5.00;;;;;;;;;;5045635;28;20024;-74
2022/05/22 05:59:22;;;;;;;21.15;4.18;;;;;;;;;;5047674;28;20021;-74
2022/05/22 06:01:48;;;;;;;16.92;4.22;;;;;;;;;;5034155;28;20025;-76
2022/05/22 06:04:14;;;;;;;17.83;3.72;;;;;;;;;;5035434;28;20044;-75
2022/05/22 06:06:40;;;;;;;24.20;4.43;;;;;;;;;;5032823;28;20086;-79
2022/05/22 06:09:06;;;;;;;26.60;4.70;;;;;;;;;;5032769;28;20021;-76
2022/05/22 06:11:32;;;;;;;26.45;5.07;;;;;;;;;;5032371;28;20495;-74
2022/05/22 06:13:58;;;;;;;18.45;3.92;;;;;;;;;;5034087;28;20048;-76
2022/05/22 06:16:26;;;;;;;25.00;5.70;;;;;;;;;;5032388;28;20076;-77
2022/05/22 06:18:51;;;;;;;22.65;4.10;;;;;;;;;;5033679;28;20018;-77
2022/05/22 06:21:18;;;;;;;17.08;3.95;;;;;;;;;;5034430;28;20040;-75
2022/05/22 06:23:45;;;;;;;25.35;4.40;;;;;;;;;;5031549;28;20063;-78
2022/05/22 06:26:12;;;;;;;22.77;4.05;;;;;;;;;;5032589;28;20109;-78
2022/05/22 06:28:38;;;;;;;23.17;4.65;;;;;;;;;;5032754;28;20107;-77
2022/05/22 06:31:05;;;;;;;31.45;4.82;;;;;;;;;;5033289;28;20026;-78
2022/05/22 06:33:31;;;;;;;22.45;4.13;;;;;;;;;;5037992;28;20095;-79
2022/05/22 06:35:57;;;;;;;15.77;4.20;;;;;;;;;;5034051;28;20052;-75
2022/05/22 06:41:09;;;;;;;23.17;4.07;;;;;;;;;;5037565;28;20040;-77
2022/05/22 06:43:35;;;;;;;25.67;4.80;;;;;;;;;;5040593;28;20052;-77
2022/05/22 06:46:02;;;;;;;23.63;4.38;;;;;;;;;;5036995;28;20395;-75
2022/05/22 06:48:28;;;;;;;20.58;4.65;;;;;;;;;;5034281;28;20037;-76
2022/05/22 06:50:54;;;;;;;22.50;4.20;;;;;;;;;;5034551;28;20034;-74
2022/05/22 06:53:20;;;;;;;25.35;3.92;;;;;;;;;;5032812;28;20048;-75
2022/05/22 06:55:46;;;;;;;23.60;3.90;;;;;;;;;;5032314;28;20083;-75
2022/05/22 06:58:12;;;;;;;20.05;3.75;;;;;;;;;;5031443;28;20029;-75
2022/05/22 07:00:38;;;;;;;21.27;4.15;;;;;;;;;;5032627;28;20104;-75
2022/05/22 07:03:04;;;;;;;18.77;3.75;;;;;;;;;;5031414;28;20022;-75
2022/05/22 07:05:30;;;;;;;19.02;3.63;;;;;;;;;;5031918;28;20064;-78
2022/05/22 07:07:56;;;;;;;23.67;3.85;;;;;;;;;;5032216;28;20041;-74
2022/05/22 07:13:07;;;;;;;15.48;3.42;;;;;;;;;;5032286;28;20036;-75
2022/05/22 07:15:33;;;;;;;16.85;2.60;;;;;;;;;;5031607;28;20047;-76
2022/05/22 07:17:59;;;;;;;23.20;3.40;;;;;;;;;;5034240;28;20022;-74
2022/05/22 07:20:25;;;;;;;21.95;3.30;;;;;;;;;;5036426;28;20367;-78
2022/05/22 07:22:50;;;;;;;27.67;3.95;;;;;;;;;;5037136;28;20431;-74
2022/05/22 07:25:16;;;;;;;23.45;3.28;;;;;;;;;;5036583;28;20035;-75
2022/05/22 07:27:42;;;;;;;20.42;4.35;;;;;;;;;;5034947;28;20068;-74
2022/05/22 07:30:08;;;;;;;14.50;2.92;;;;;;;;;;5035420;28;20033;-75
2022/05/22 07:32:34;;;;;;;23.85;3.40;;;;;;;;;;5064972;23;20049;-70
2022/05/22 07:35:00;;;;;;;17.85;3.17;;;;;;;;;;5043643;28;20026;-71
2022/05/22 07:37:26;;;;;;;17.85;3.30;;;;;;;;;;5043046;28;20029;-71
2022/05/22 07:39:52;;;;;;;23.65;3.90;;;;;;;;;;5041592;28;20022;-72
2022/05/22 07:42:18;;;;;;;19.02;3.50;;;;;;;;;;5042133;28;20037;-72
2022/05/22 07:44:44;;;;;;;20.85;3.47;;;;;;;;;;5040670;28;20032;-71
2022/05/22 07:47:10;;;;;;;17.23;3.50;;;;;;;;;;5041993;28;20477;-71
2022/05/22 07:52:21;;;;;;;20.88;3.08;;;;;;;;;;5037528;28;20087;-72
2022/05/22 07:54:47;;;;;;;22.95;3.15;;;;;;;;;;5039025;28;20455;-72
2022/05/22 07:57:13;;;;;;;15.27;2.60;;;;;;;;;;5035930;28;20061;-72
2022/05/22 07:59:39;;;;;;;17.80;3.00;;;;;;;;;;5034701;28;20053;-72
2022/05/22 08:02:08;;;;;;;22.15;2.63;;;;;;;;;;5034678;28;20030;-72
2022/05/22 08:04:34;;;;;;;19.45;2.83;;;;;;;;;;5034758;28;20029;-71
2022/05/22 08:07:00;;;;;;;12.32;2.75;;;;;;;;;;5034727;28;20463;-71
2022/05/22 08:09:26;;;;;;;13.98;2.67;;;;;;;;;;5034808;28;20413;-71
2022/05/22 08:11:52;;;;;;;13.35;3.25;;;;;;;;;;5038082;28;20021;-70
2022/05/22 08:14:18;;;;;;;13.45;2.45;;;;;;;;;;5042356;28;20032;-71
2022/05/22 08:16:44;;;;;;;17.98;2.80;;;;;;;;;;5045312;28;20340;-72
2022/05/22 08:19:11;;;;;;;17.27;2.85;;;;;;;;;;5048168;28;20018;-72
2022/05/22 08:21:37;;;;;;;21.65;2.88;;;;;;;;;;5033227;28;20033;-72
2022/05/22 08:24:03;;;;;;;14.57;2.28;;;;;;;;;;5033557;28;20057;-73
2022/05/22 08:26:29;;;;;;;11.18;1.77;;;;;;;;;;5031968;28;20025;-71
2022/05/22 08:28:55;;;;;;;10.73;1.73;;;;;;;;;;5015149;28;20060;-72
2022/05/22 08:31:21;;;;;;;11.75;1.95;;;;;;;;;;5032856;28;20068;-72
2022/05/22 08:33:47;;;;;;;9.73;2.13;;;;;;;;;;5033413;28;20017;-73
2022/05/22 08:36:13;;;;;;;9.15;2.15;;;;;;;;;;5032376;28;20048;-71
2022/05/22 08:38:39;;;;;;;10.93;2.20;;;;;;;;;;5037109;28;20025;-73
2022/05/22 08:41:08;;;;;;;9.38;1.88;;;;;;;;;;5036364;28;20111;-72
2022/05/22 08:43:36;;;;;;;7.97;1.92;;;;;;;;;;5037170;28;20665;-73
2022/05/22 08:46:12;;;;;;;7.07;2.20;;;;;;;;;;5034752;28;20431;-72
2022/05/22 08:48:44;;;;;;;11.90;2.45;;;;;;;;;;5033144;28;20030;-71
2022/05/22 08:51:18;;;;;;;10.98;2.17;;;;;;;;;;5015291;28;20467;-71
2022/05/22 08:53:47;;;;;;;10.80;1.98;;;;;;;;;;5032513;28;20044;-72
2022/05/22 08:59:26;;;;;;;10.13;2.05;;;;;;;;;;5034058;28;20039;-73
2022/05/22 09:02:12;;;;;;;10.50;1.80;;;;;;;;;;5029897;28;20038;-73
2022/05/22 09:04:38;;;;;;;8.07;1.50;;;;;;;;;;5033357;28;20033;-74
2022/05/22 09:07:12;;;;;;;14.45;1.83;;;;;;;;;;5032246;28;20033;-72
2022/05/22 09:09:40;;;;;;;10.70;1.77;;;;;;;;;;5032514;28;20029;-73
2022/05/22 09:12:09;;;;;;;10.57;1.50;;;;;;;;;;5032715;28;20034;-73
2022/05/22 09:14:43;;;;;;;8.73;1.83;;;;;;;;;;5014881;28;20025;-74
2022/05/22 09:17:17;;;;;;;9.80;1.67;;;;;;;;;;5034876;28;20017;-73
2022/05/22 09:19:43;;;;;;;8.23;1.88;;;;;;;;;;5034299;28;20081;-72
2022/05/22 09:22:21;;;;;;;6.72;1.50;;;;;;;;;;5037196;28;20067;-75
2022/05/22 09:25:02;;;;;;;5.55;1.45;;;;;;;;;;5038115;28;20133;-75
2022/05/22 09:27:54;;;;;;;7.28;1.60;;;;;;;;;;5036153;28;20018;-72
2022/05/22 09:30:26;;;;;;;6.90;1.40;;;;;;;;;;5031281;28;20037;-73
2022/05/22 09:32:59;;;;;;;9.60;2.25;;;;;;;;;;5033298;28;20064;-74
2022/05/22 09:35:34;;;;;;;10.65;2.42;;;;;;;;;;5035083;28;20105;-73
2022/05/22 09:38:16;;;;;;;7.53;2.08;;;;;;;;;;5034470;28;20478;-72
2022/05/22 09:40:46;;;;;;;7.38;1.30;;;;;;;;;;5031444;28;20053;-72
2022/05/22 09:43:18;;;;;;;8.65;1.50;;;;;;;;;;5031567;28;20088;-71
2022/05/22 09:45:58;;;;;;;9.75;1.80;;;;;;;;;;5030561;28;20029;-72
2022/05/22 09:48:33;;;;;;;4.68;0.98;;;;;;;;;;5031551;28;20025;-74
2022/05/22 09:51:07;;;;;;;7.00;1.40;;;;;;;;;;5031239;28;20041;-71
2022/05/22 09:53:45;;;;;;;9.50;1.80;;;;;;;;;;5031869;28;20394;-72
2022/05/22 09:56:14;;;;;;;6.45;1.40;;;;;;;;;;5030888;28;20284;-71
2022/05/22 09:58:46;;;;;;;9.23;2.20;;;;;;;;;;5035649;28;20021;-73
2022/05/22 10:01:32;;;;;;;7.13;1.42;;;;;;;;;;5038687;28;20025;-71
2022/05/22 10:03:58;;;;;;;9.73;1.83;;;;;;;;;;5038963;28;20029;-73
2022/05/22 10:06:34;;;;;;;8.77;1.60;;;;;;;;;;5033982;28;20029;-72
2022/05/22 10:09:15;;;;;;;8.23;1.75;;;;;;;;;;5034933;28;20026;-72
2022/05/22 10:11:48;;;;;;;14.40;1.85;;;;;;;;;;5035637;28;20033;-72
2022/05/22 10:14:26;;;;;;;5.65;1.42;;;;;;;;;;5033572;28;20029;-74
2022/05/22 10:17:23;;;;;;;8.57;1.77;;;;;;;;;;5032064;28;20025;-73
2022/05/22 10:20:07;;;;;;;9.65;1.60;;;;;;;;;;5035807;28;20379;-73
2022/05/22 10:22:49;;;;;;;11.18;1.95;;;;;;;;;;5035316;28;20030;-73
2022/05/22 10:25:21;;;;;;;9.50;2.22;;;;;;;;;;5032108;28;20022;-73
2022/05/22 10:28:07;;;;;;;8.13;2.50;;;;;;;;;;5034460;28;20030;-73
2022/05/22 10:30:40;;;;;;;14.95;2.17;;;;;;;;;;5018905;28;20029;-72
2022/05/22 10:33:10;;;;;;;9.18;2.10;;;;;;;;;;5031710;28;20029;-72
2022/05/22 10:35:44;;;;;;;7.93;1.92;;;;;;;;;;5031660;28;20024;-72
2022/05/22 10:38:10;;;;;;;;;;;;;;;;;;5036261;28;20117;-74
2022/05/22 10:43:28;;;;;;;7.57;1.80;;;;;;;;;;5030137;28;20024;-73
2022/05/22 10:45:54;;;;;;;7.15;1.40;;;;;;;;;;5030888;28;20022;-72
2022/05/22 10:48:23;;;;;;;10.25;1.80;;;;;;;;;;5031353;28;20386;-73
2022/05/22 10:51:07;;;;;;;9.15;1.85;;;;;;;;;;5030247;28;20467;-74
2022/05/22 10:53:39;;;;;;;8.55;1.50;;;;;;;;;;5034996;28;20352;-72
2022/05/22 10:56:15;;;;;;;9.07;1.50;;;;;;;;;;5034967;28;20110;-73
2022/05/22 10:58:51;;;;;;;10.13;1.83;;;;;;;;;;5033895;28;20085;-72
2022/05/22 11:01:19;;;;;;;7.18;1.55;;;;;;;;;;5035185;28;20053;-72
2022/05/22 11:03:45;;;;;;;9.93;2.10;;;;;;;;;;5034535;28;20025;-74
2022/05/22 11:06:22;;;;;;;7.95;1.92;;;;;;;;;;5035337;28;20032;-70
2022/05/22 11:08:50;;;;;;;6.65;1.48;;;;;;;;;;5035090;28;20022;-71
2022/05/22 11:11:18;;;;;;;6.78;1.40;;;;;;;;;;5036945;28;20029;-71
2022/05/22 11:13:45;;;;;;;7.18;1.95;;;;;;;;;;5039577;28;20234;-73
2022/05/22 11:16:15;;;;;;;6.75;1.40;;;;;;;;;;5040441;28;20018;-72
2022/05/22 11:18:41;;;;;;;5.78;1.30;;;;;;;;;;5041971;28;20108;-71
2022/05/22 11:21:16;;;;;;;5.53;1.08;;;;;;;;;;5043251;28;20087;-71
2022/05/22 11:23:42;;;;;;;5.93;1.60;;;;;;;;;;5043474;28;20026;-72
2022/05/22 11:26:08;;;;;;;7.30;2.78;;;;;;;;;;5026824;28;20024;-72
2022/05/22 11:29:00;;;;;;;7.25;1.60;;;;;;;;;;5039140;28;20393;-72
2022/05/22 11:31:56;;;;;;;6.35;1.48;;;;;;;;;;5036532;28;20031;-72
2022/05/22 11:34:46;;;;;;;4.47;1.20;;;;;;;;;;5018969;28;20086;-72
2022/05/22 11:37:31;;;;;;;9.98;1.52;;;;;;;;;;5019768;28;20394;-72
2022/05/22 11:40:08;;;;;;;9.05;1.60;;;;;;;;;;5037195;28;20026;-73
2022/05/22 11:42:36;;;;;;;8.40;1.63;;;;;;;;;;5037642;28;20613;-73
2022/05/22 11:45:40;;;;;;;7.38;1.58;;;;;;;;;;5037165;28;20614;-73
2022/05/22 11:48:12;;;;;;;8.60;2.78;;;;;;;;;;4935949;29;20489;-72
2022/05/22 11:50:43;;;;;;;5.32;1.20;;;;;;;;;;4935798;29;20035;-71
2022/05/22 11:53:09;;;;;;;7.60;1.88;;;;;;;;;;4991316;28;20490;-77
2022/05/22 11:55:42;;;;;;;9.85;1.77;;;;;;;;;;5036010;28;20029;-73
2022/05/22 11:58:11;;;;;;;7.75;1.67;;;;;;;;;;5036718;28;20033;-71
2022/05/22 12:00:40;;;;;;;7.15;1.75;;;;;;;;;;5036520;28;20317;-71
2022/05/22 12:03:25;;;;;;;6.70;1.25;;;;;;;;;;5033982;28;20025;-72
2022/05/22 12:05:53;;;;;;;5.30;1.23;;;;;;;;;;5034764;28;20028;-71
2022/05/22 12:08:33;;;;;;;6.13;1.27;;;;;;;;;;5018553;28;20059;-73
2022/05/22 12:11:11;;;;;;;6.72;1.40;;;;;;;;;;5035069;28;20021;-71
2022/05/22 12:13:58;;;;;;;5.90;1.30;;;;;;;;;;5034425;28;20033;-73
2022/05/22 12:16:27;;;;;;;7.03;1.40;;;;;;;;;;5035192;28;20382;-73
2022/05/22 12:19:02;;;;;;;6.88;1.83;;;;;;;;;;5034795;28;20028;-72
2022/05/22 12:21:47;;;;;;;9.13;1.50;;;;;;;;;;5036428;28;20096;-72
2022/05/22 12:24:32;;;;;;;6.28;1.40;;;;;;;;;;5016556;28;20033;-72
2022/05/22 12:26:58;;;;;;;4.68;1.40;;;;;;;;;;5034622;28;20113;-73
2022/05/22 12:29:27;;;;;;;5.65;1.30;;;;;;;;;;5018001;28;20120;-73
2022/05/22 12:31:57;;;;;;;9.48;2.20;;;;;;;;;;5017465;28;20566;-73
2022/05/22 12:34:39;;;;;;;7.93;1.80;;;;;;;;;;5033354;28;20100;-73
2022/05/22 12:37:06;;;;;;;6.13;1.60;;;;;;;;;;5022043;28;20025;-72
2022/05/22 12:39:38;;;;;;;8.63;1.63;;;;;;;;;;5034350;28;20441;-72
2022/05/22 12:42:17;;;;;;;5.97;1.25;;;;;;;;;;5034031;28;20419;-72
2022/05/22 12:44:43;;;;;;;5.32;1.10;;;;;;;;;;5034211;28;20049;-72
2022/05/22 12:47:13;;;;;;;3.42;1.08;;;;;;;;;;5033189;28;20376;-72
2022/05/22 12:49:39;;;;;;;10.30;1.65;;;;;;;;;;5034135;28;20028;-72
2022/05/22 12:52:07;;;;;;;5.70;1.73;;;;;;;;;;5033936;28;20033;-73
2022/05/22 12:54:34;;;;;;;10.20;2.47;;;;;;;;;;5034061;28;20059;-73
2022/05/22 12:57:15;;;;;;;8.77;1.90;;;;;;;;;;5033042;28;20052;-72
2022/05/22 12:59:55;;;;;;;4.35;1.08;;;;;;;;;;5032329;28;20029;-73
2022/05/22 13:02:26;;;;;;;7.32;1.55;;;;;;;;;;5033933;28;20032;-73
2022/05/22 13:04:54;;;;;;;6.68;1.23;;;;;;;;;;5033754;28;20030;-71
2022/05/22 13:07:30;;;;;;;5.40;1.30;;;;;;;;;;5032655;28;20163;-72
2022/05/22 13:09:56;;;;;;;7.57;1.60;;;;;;;;;;5034407;28;20030;-73
2022/05/22 13:12:26;;;;;;;6.40;1.70;;;;;;;;;;5034233;28;20525;-73
2022/05/22 13:15:06;;;;;;;4.05;1.00;;;;;;;;;;5033532;28;20028;-72
2022/05/22 13:17:42;;;;;;;8.48;1.25;;;;;;;;;;5035697;28;20025;-72
2022/05/22 13:20:21;;;;;;;4.38;1.58;;;;;;;;;;5033940;28;20014;-70
2022/05/22 13:22:47;;;;;;;7.38;1.20;;;;;;;;;;5034795;28;20037;-74
2022/05/22 13:25:27;;;;;;;5.32;1.52;;;;;;;;;;5038861;28;20071;-75
2022/05/22 13:27:53;;;;;;;6.07;1.75;;;;;;;;;;5037594;28;20032;-73
2022/05/22 13:30:21;;;;;;;7.43;1.35;;;;;;;;;;5034901;28;20029;-74
2022/05/22 13:32:53;;;;;;;7.70;1.75;;;;;;;;;;5035462;28;20041;-74
2022/05/22 13:35:23;;;;;;;3.95;1.20;;;;;;;;;;5056323;22;20050;-75
2022/05/22 13:37:51;;;;;;;4.72;1.17;;;;;;;;;;5034806;28;20025;-76
2022/05/22 13:40:23;;;;;;;4.53;1.02;;;;;;;;;;5033502;28;20032;-76
2022/05/22 13:42:58;;;;;;;8.65;2.50;;;;;;;;;;5034861;28;20029;-76
2022/05/22 13:45:34;;;;;;;5.30;1.52;;;;;;;;;;5034190;28;20057;-75
2022/05/22 13:48:03;;;;;;;6.05;1.55;;;;;;;;;;5033577;28;20029;-78
2022/05/22 13:53:39;;;;;;;7.95;2.05;;;;;;;;;;5032656;28;20071;-77
2022/05/22 13:56:05;;;;;;;;;;;;;;;;;;5032810;28;20053;-78
2022/05/22 13:58:36;;;;;;;5.63;0.95;;;;;;;;;;5034218;28;20361;-77
2022/05/22 14:01:04;;;;;;;5.97;1.20;;;;;;;;;;5034278;28;20024;-76
2022/05/22 14:03:51;;;;;;;7.47;2.10;;;;;;;;;;5033032;28;20029;-77
2022/05/22 14:06:19;;;;;;;5.93;1.30;;;;;;;;;;5033076;28;20048;-78
2022/05/22 14:08:47;;;;;;;6.13;1.50;;;;;;;;;;5035544;28;20026;-78
2022/05/22 14:11:20;;;;;;;7.53;3.03;;;;;;;;;;5036007;28;20021;-76
2022/05/22 14:13:55;;;;;;;5.70;1.65;;;;;;;;;;5040264;28;20040;-78
2022/05/22 14:16:20;;;;;;;;;;;;;;;;;;5031868;28;20025;-77
2022/05/22 14:18:57;;;;;;;6.68;1.60;;;;;;;;;;5032287;28;19905;-76
2022/05/22 14:21:24;;;;;;;5.82;1.60;;;;;;;;;;5032052;28;20032;-76
2022/05/22 14:26:34;;;;;;;7.45;1.38;;;;;;;;;;5038690;28;20039;-78
2022/05/22 14:29:00;;;;;;;5.13;1.17;;;;;;;;;;5042789;28;20057;-74
2022/05/22 14:31:30;;;;;;;5.53;1.20;;;;;;;;;;5032353;28;20111;-75
2022/05/22 14:33:57;;;;;;;12.95;7.85;;;;;;;;;;5032792;28;20021;-75
2022/05/22 14:36:23;;;;;;;9.57;2.15;;;;;;;;;;5031308;28;20452;-77
2022/05/22 14:38:51;;;;;;;5.35;1.80;;;;;;;;;;5032392;28;20495;-77
2022/05/22 14:41:35;;;;;;;6.70;1.80;;;;;;;;;;5032328;28;20557;-75
2022/05/22 14:44:01;;;;;;;11.45;2.40;;;;;;;;;;5032440;28;20103;-76
2022/05/22 14:46:32;;;;;;;6.45;1.30;;;;;;;;;;5032068;28;20030;-76
2022/05/22 14:49:02;;;;;;;5.15;1.20;;;;;;;;;;5031511;28;20029;-75
2022/05/22 14:51:30;;;;;;;8.60;1.88;;;;;;;;;;5037273;28;20045;-76
2022/05/22 14:54:09;;;;;;;5.55;1.17;;;;;;;;;;5055569;28;20116;-77
2022/05/22 14:56:36;;;;;;;7.82;2.90;;;;;;;;;;5037934;28;20026;-74
2022/05/22 14:59:05;;;;;;;4.95;1.70;;;;;;;;;;5033967;28;20030;-76
2022/05/22 15:01:51;;;;;;;7.85;1.80;;;;;;;;;;5033431;28;20045;-76
2022/05/22 15:04:25;;;;;;;4.57;1.23;;;;;;;;;;5032713;28;20068;-76
2022/05/22 15:06:51;;;;;;;;;;;;;;;;;;5032726;28;20021;-77
2022/05/22 15:09:30;;;;;;;7.38;1.60;;;;;;;;;;5032917;28;19912;-75
2022/05/22 15:12:02;;;;;;;5.78;1.30;;;;;;;;;;5032835;28;20033;-75
2022/05/22 15:14:29;;;;;;;5.85;1.40;;;;;;;;;;5032613;28;20390;-77
2022/05/22 15:16:57;;;;;;;8.70;1.50;;;;;;;;;;5031569;28;20026;-75
2022/05/22 15:19:49;;;;;;;11.25;2.88;;;;;;;;;;5032652;28;20029;-76
2022/05/22 15:25:29;;;;;;;4.18;1.40;;;;;;;;;;5026674;28;20052;-75